Time;durP1;ratioP1;P1;durP2;ratioP2;P2;SDS_P1;SDS_P2;PMS_P1;PMS_P2;Temp;Humidity;BMP_temperature;BMP_pressure;BME280_temperature;BME280_humidity;BME280_pressure;Samples;Min_cycle;Max_cycle;Signal;HPM_P1;HPM_P2
2023/10/25 00:00:38;;;;;;;16.85;7.75;;;;;;;8.33;100.00;99117.72;5157894;27;20054;-61
2023/10/25 00:03:04;;;;;;;19.70;8.98;;;;;;;8.33;100.00;99109.53;5157805;27;20100;-61
2023/10/25 00:05:32;;;;;;;15.32;8.43;;;;;;;7.89;100.00;99109.56;5158116;27;20047;-61
2023/10/25 00:07:58;;;;;;;16.95;7.93;;;;;;;8.07;100.00;99101.88;5157697;27;20051;-61
2023/10/25 00:10:24;;;;;;;22.33;8.07;;;;;;;7.95;100.00;99098.03;5158146;27;20057;-61
2023/10/25 00:12:50;;;;;;;13.07;6.85;;;;;;;7.68;100.00;99082.47;5157578;27;20047;-61
2023/10/25 00:15:16;;;;;;;11.63;6.15;;;;;;;8.00;100.00;99067.75;5157996;27;20146;-61
2023/10/25 00:17:42;;;;;;;14.65;6.75;;;;;;;8.02;100.00;99057.28;5157772;27;20051;-61
2023/10/25 00:20:08;;;;;;;12.73;6.55;;;;;;;8.15;100.00;99068.13;5157656;27;20078;-61
2023/10/25 00:22:35;;;;;;;12.48;5.95;;;;;;;7.83;100.00;99068.09;5160336;27;20050;-62
2023/10/25 00:25:01;;;;;;;11.05;6.55;;;;;;;7.75;100.00;99055.38;5161067;27;20137;-61
2023/10/25 00:27:27;;;;;;;10.85;6.05;;;;;;;7.68;100.00;99055.19;5161248;27;20047;-61
2023/10/25 00:29:53;;;;;;;10.00;6.07;;;;;;;7.43;100.00;99041.66;5161130;27;20051;-61
2023/10/25 00:32:18;;;;;;;12.63;6.57;;;;;;;7.65;100.00;99032.13;5161372;27;20388;-61
2023/10/25 00:34:44;;;;;;;13.23;6.07;;;;;;;7.78;100.00;99027.38;5160952;27;20111;-61
2023/10/25 00:37:10;;;;;;;14.32;6.45;;;;;;;7.66;100.00;99021.97;5161349;27;20208;-61
2023/10/25 00:39:37;;;;;;;15.02;6.60;;;;;;;7.43;100.00;99016.28;5160755;27;20352;-61
2023/10/25 00:42:03;;;;;;;12.80;6.05;;;;;;;7.66;100.00;99006.41;5161245;27;20377;-61
2023/10/25 00:44:29;;;;;;;14.10;7.03;;;;;;;7.87;100.00;99002.69;5160715;27;20050;-61
2023/10/25 00:46:55;;;;;;;13.20;5.95;;;;;;;7.55;100.00;99011.56;5160982;27;20093;-61
2023/10/25 00:49:21;;;;;;;13.32;7.00;;;;;;;7.92;100.00;99008.66;5160998;27;20089;-61
2023/10/25 00:51:47;;;;;;;14.18;6.20;;;;;;;7.43;100.00;99022.56;5160628;27;20145;-61
2023/10/25 00:54:14;;;;;;;14.00;6.55;;;;;;;7.74;100.00;99001.94;5160960;27;20137;-61
2023/10/25 00:56:41;;;;;;;15.77;6.80;;;;;;;7.59;100.00;99008.16;5160493;27;20422;-61
2023/10/25 00:59:12;;;;;;;10.02;6.00;;;;;;;7.15;100.00;99000.72;5160894;27;20419;-61
2023/10/25 01:01:38;;;;;;;12.05;6.78;;;;;;;7.32;100.00;98975.09;5160343;27;20059;-61
2023/10/25 01:04:04;;;;;;;11.65;6.47;;;;;;;7.51;100.00;98983.41;5160776;27;20057;-61
2023/10/25 01:06:30;;;;;;;10.55;6.18;;;;;;;7.69;100.00;98989.34;5160435;27;20058;-61
2023/10/25 01:08:56;;;;;;;12.52;5.68;;;;;;;7.26;100.00;98979.19;5160356;27;20133;-61
2023/10/25 01:11:22;;;;;;;13.02;6.10;;;;;;;7.06;100.00;98979.06;5160296;27;20054;-61
2023/10/25 01:13:48;;;;;;;12.57;6.00;;;;;;;7.33;100.00;98949.44;5160238;27;20145;-61
2023/10/25 01:16:14;;;;;;;15.43;6.85;;;;;;;7.70;100.00;98954.69;5160546;27;20053;-61
2023/10/25 01:18:40;;;;;;;14.82;6.53;;;;;;;7.22;100.00;98960.03;5160430;27;20137;-61
2023/10/25 01:21:07;;;;;;;13.07;6.22;;;;;;;7.24;100.00;98957.75;5160421;27;20439;-61
2023/10/25 01:23:33;;;;;;;13.10;5.80;;;;;;;7.36;100.00;98943.25;5160111;27;20053;-61
2023/10/25 01:25:59;;;;;;;11.43;5.63;;;;;;;7.41;100.00;98948.47;5160244;27;20051;-61
2023/10/25 01:28:25;;;;;;;10.55;5.63;;;;;;;7.44;100.00;98950.50;5160215;27;20061;-61
2023/10/25 01:30:52;;;;;;;11.88;5.75;;;;;;;7.49;100.00;98961.13;5160339;27;20066;-61
2023/10/25 01:33:18;;;;;;;11.05;5.35;;;;;;;7.48;100.00;98950.59;5159668;27;20099;-61
2023/10/25 01:35:44;;;;;;;12.20;5.63;;;;;;;7.39;100.00;98958.13;5160358;27;20042;-61
2023/10/25 01:38:10;;;;;;;11.35;5.05;;;;;;;7.58;100.00;98952.81;5159892;27;20051;-61
2023/10/25 01:40:36;;;;;;;10.00;5.22;;;;;;;7.65;100.00;98963.13;5160259;27;20050;-61
2023/10/25 01:43:02;;;;;;;10.80;4.82;;;;;;;7.74;100.00;98988.31;5159756;27;20138;-61
2023/10/25 01:45:30;;;;;;;12.80;5.00;;;;;;;7.66;100.00;99000.94;5160049;27;20149;-61
2023/10/25 01:47:56;;;;;;;15.02;5.22;;;;;;;7.55;100.00;98997.16;5159780;27;20054;-61
2023/10/25 01:50:22;;;;;;;8.65;4.50;;;;;;;7.69;100.00;99002.97;5159921;27;20050;-61
2023/10/25 01:52:48;;;;;;;12.30;5.30;;;;;;;7.70;100.00;99015.50;5160026;27;20141;-61
2023/10/25 01:55:14;;;;;;;8.45;4.22;;;;;;;7.15;100.00;98999.94;5159820;27;20394;-60
2023/10/25 01:57:40;;;;;;;9.80;4.80;;;;;;;7.50;100.00;98981.06;5159973;27;20054;-60
2023/10/25 02:00:07;;;;;;;12.40;4.85;;;;;;;7.38;100.00;98981.88;5159560;27;20134;-61
2023/10/25 02:02:34;;;;;;;8.07;4.35;;;;;;;7.54;100.00;98973.75;5159935;27;20430;-62
2023/10/25 02:05:00;;;;;;;10.15;4.80;;;;;;;7.62;100.00;98986.41;5159536;27;20042;-61
2023/10/25 02:07:26;;;;;;;12.57;6.00;;;;;;;7.41;100.00;98994.84;5159874;27;20313;-61
2023/10/25 02:09:52;;;;;;;9.10;4.85;;;;;;;7.79;100.00;98986.09;5159448;27;20134;-61
2023/10/25 02:12:18;;;;;;;14.45;5.70;;;;;;;7.94;100.00;98997.41;5159740;27;20057;-61
2023/10/25 02:14:44;;;;;;;10.35;5.57;;;;;;;7.75;100.00;99011.72;5159526;27;20089;-61
2023/10/25 02:17:10;;;;;;;10.05;5.32;;;;;;;7.67;100.00;99009.94;5159530;27;20058;-61
2023/10/25 02:19:36;;;;;;;8.52;5.25;;;;;;;7.40;100.00;99000.66;5159465;27;20459;-60
2023/10/25 02:22:02;;;;;;;10.40;5.70;;;;;;;7.37;100.00;98995.88;5159515;27;20445;-61
2023/10/25 02:24:28;;;;;;;10.65;5.97;;;;;;;7.68;100.00;98987.75;5159571;27;20058;-61
2023/10/25 02:26:54;;;;;;;11.90;6.20;;;;;;;7.72;100.00;99005.00;5159277;27;20145;-61
2023/10/25 02:29:20;;;;;;;10.88;6.50;;;;;;;7.69;100.00;98994.00;5159510;27;20074;-61
2023/10/25 02:31:47;;;;;;;11.07;5.88;;;;;;;7.62;100.00;98996.56;5159157;27;20126;-61
2023/10/25 02:34:13;;;;;;;10.32;5.28;;;;;;;7.83;100.00;98999.03;5159444;27;20047;-61
2023/10/25 02:36:39;;;;;;;11.10;5.78;;;;;;;7.36;100.00;99005.97;5159360;27;20114;-61
2023/10/25 02:39:05;;;;;;;8.35;5.45;;;;;;;7.14;100.00;98990.97;5159363;27;20103;-61
2023/10/25 02:41:31;;;;;;;9.40;5.40;;;;;;;7.37;100.00;98988.50;5158720;27;20050;-61
2023/10/25 02:43:57;;;;;;;9.27;5.40;;;;;;;7.30;100.00;98989.09;5157940;27;20463;-61
2023/10/25 02:46:23;;;;;;;9.98;6.50;;;;;;;7.31;100.00;98974.31;5159134;27;20062;-61
2023/10/25 02:48:50;;;;;;;10.30;5.75;;;;;;;7.45;100.00;98987.53;5158960;27;20051;-60
2023/10/25 02:51:16;;;;;;;8.85;5.65;;;;;;;7.58;100.00;98969.19;5159090;27;20058;-60
2023/10/25 02:53:42;;;;;;;11.20;6.25;;;;;;;7.47;100.00;98982.53;5158687;27;20051;-61
2023/10/25 02:56:08;;;;;;;10.13;6.18;;;;;;;7.21;100.00;98991.16;5159047;27;20046;-61
2023/10/25 02:58:35;;;;;;;12.60;6.57;;;;;;;7.39;100.00;98977.22;5158725;27;20387;-61
2023/10/25 03:01:01;;;;;;;10.48;6.22;;;;;;;7.53;100.00;98972.16;5158927;27;20057;-60
2023/10/25 03:03:29;;;;;;;11.02;5.95;;;;;;;7.54;100.00;98982.72;5158614;27;20133;-61
2023/10/25 03:05:56;;;;;;;10.50;7.03;;;;;;;7.53;100.00;98977.59;5159018;27;20134;-61
2023/10/25 03:08:22;;;;;;;10.02;6.03;;;;;;;7.56;100.00;99004.19;5158493;27;20043;-61
2023/10/25 03:10:48;;;;;;;9.13;5.97;;;;;;;7.62;100.00;99004.72;5158820;27;20511;-64
2023/10/25 03:13:14;;;;;;;11.80;6.15;;;;;;;7.40;100.00;99003.38;5158728;27;20196;-61
2023/10/25 03:15:40;;;;;;;10.02;5.32;;;;;;;7.18;100.00;98997.31;5158319;27;20106;-61
2023/10/25 03:18:07;;;;;;;11.85;6.03;;;;;;;7.09;100.00;98999.38;5158553;27;20133;-61
2023/10/25 03:20:34;;;;;;;9.02;6.05;;;;;;;7.42;100.00;98979.25;5158134;27;20050;-60
2023/10/25 03:23:00;;;;;;;12.35;6.35;;;;;;;7.34;100.00;98981.00;5158563;27;20435;-61
2023/10/25 03:25:27;;;;;;;9.38;5.75;;;;;;;7.34;100.00;98981.00;5158341;27;20047;-60
2023/10/25 03:27:53;;;;;;;13.57;7.00;;;;;;;7.40;100.00;98985.06;5158627;27;20145;-61
2023/10/25 03:30:19;;;;;;;10.88;6.18;;;;;;;7.27;100.00;98973.41;5158184;27;20451;-61
2023/10/25 03:32:45;;;;;;;12.10;6.65;;;;;;;7.47;100.00;98966.16;5158460;27;20396;-61
2023/10/25 03:35:11;;;;;;;14.30;7.38;;;;;;;7.35;100.00;98976.34;5158109;27;20046;-61
2023/10/25 03:37:39;;;;;;;11.65;6.63;;;;;;;7.49;100.00;98961.13;5158492;27;20455;-60
2023/10/25 03:40:08;;;;;;;15.88;6.80;;;;;;;7.52;100.00;98960.44;5157817;27;20051;-61
2023/10/25 03:42:35;;;;;;;16.25;6.97;;;;;;;7.67;100.00;98969.03;5158197;27;20046;-61
2023/10/25 03:45:00;;;;;;;12.10;6.90;;;;;;;7.66;100.00;98973.66;5158267;27;20047;-61
2023/10/25 03:47:26;;;;;;;13.13;6.82;;;;;;;7.66;100.00;98976.38;5157935;27;20490;-61
2023/10/25 03:49:52;;;;;;;16.85;6.57;;;;;;;7.63;100.00;98981.75;5157997;27;20058;-61
2023/10/25 03:52:18;;;;;;;13.60;7.13;;;;;;;7.48;100.00;98986.06;5158004;27;20051;-61
2023/10/25 03:54:44;;;;;;;12.98;6.93;;;;;;;7.85;100.00;98983.13;5158198;27;20101;-61
2023/10/25 03:57:11;;;;;;;12.32;7.00;;;;;;;7.75;100.00;98987.94;5161660;27;20424;-61
2023/10/25 03:59:37;;;;;;;12.05;7.38;;;;;;;7.30;100.00;98986.38;5161950;27;20297;-61
2023/10/25 04:02:03;;;;;;;12.90;6.38;;;;;;;7.51;100.00;98969.00;5161379;27;20047;-60
2023/10/25 04:04:29;;;;;;;20.42;7.50;;;;;;;7.61;100.00;98968.47;5161920;27;20141;-60
2023/10/25 04:06:56;;;;;;;12.23;7.00;;;;;;;7.39;100.00;98969.03;5161362;27;20053;-61
2023/10/25 04:09:22;;;;;;;21.08;7.63;;;;;;;7.39;100.00;98950.75;5161315;27;20479;-61
2023/10/25 04:11:48;;;;;;;13.15;7.68;;;;;;;7.42;100.00;98952.78;5161575;27;20046;-60
2023/10/25 04:14:15;;;;;;;19.45;7.57;;;;;;;7.35;100.00;98941.66;5161220;27;20097;-61
2023/10/25 04:16:41;;;;;;;19.52;8.15;;;;;;;7.55;100.00;98956.22;5161345;27;20414;-61
2023/10/25 04:19:07;;;;;;;13.93;7.70;;;;;;;6.90;100.00;98937.31;5161288;27;20095;-61
2023/10/25 04:21:32;;;;;;;14.98;7.55;;;;;;;7.30;100.00;98917.41;5161383;27;20096;-61
2023/10/25 04:23:58;;;;;;;18.13;8.43;;;;;;;7.27;100.00;98909.91;5161174;27;20386;-61
2023/10/25 04:26:24;;;;;;;18.40;8.77;;;;;;;7.42;100.00;98908.34;5161330;27;20141;-60
2023/10/25 04:28:50;;;;;;;14.63;8.93;;;;;;;7.54;100.00;98919.19;5161101;27;20153;-61
2023/10/25 04:31:20;;;;;;;16.95;8.48;;;;;;;7.29;100.00;98929.44;5161515;27;20086;-61
2023/10/25 04:33:47;;;;;;;14.43;8.05;;;;;;;7.32;100.00;98926.00;5160957;27;20433;-61
2023/10/25 04:36:13;;;;;;;17.70;8.48;;;;;;;7.51;100.00;98928.84;5161277;27;20057;-61
2023/10/25 04:38:39;;;;;;;12.02;7.38;;;;;;;7.26;100.00;98932.84;5161131;27;20191;-60
2023/10/25 04:41:05;;;;;;;16.77;7.07;;;;;;;7.32;100.00;98932.25;5160617;27;20047;-61
2023/10/25 04:43:31;;;;;;;18.95;7.43;;;;;;;7.21;100.00;98925.72;5161029;27;20046;-61
2023/10/25 04:45:57;;;;;;;14.40;7.72;;;;;;;7.29;100.00;98922.03;5161021;27;20129;-61
2023/10/25 04:48:24;;;;;;;16.63;8.05;;;;;;;7.10;100.00;98940.19;5161019;27;20047;-60
2023/10/25 04:50:50;;;;;;;14.23;7.72;;;;;;;7.32;100.00;98926.00;5160551;27;20061;-61
2023/10/25 04:53:16;;;;;;;20.15;8.15;;;;;;;7.06;100.00;98924.56;5160797;27;20042;-61
2023/10/25 04:55:44;;;;;;;13.88;8.68;;;;;;;7.19;100.00;98903.47;5160510;27;20046;-61
2023/10/25 04:58:10;;;;;;;18.65;8.40;;;;;;;7.22;100.00;98889.13;5160852;27;20047;-60
2023/10/25 05:00:36;;;;;;;16.05;8.85;;;;;;;7.14;100.00;98889.31;5160407;27;20408;-60
2023/10/25 05:03:05;;;;;;;16.83;8.88;;;;;;;7.08;100.00;98877.84;5160742;27;20404;-61
2023/10/25 05:05:32;;;;;;;16.75;9.20;;;;;;;7.21;100.00;98863.00;5160229;27;20051;-61
2023/10/25 05:07:59;;;;;;;16.40;9.80;;;;;;;7.15;100.00;98853.50;5159779;27;20096;-63
2023/10/25 05:10:26;;;;;;;19.98;9.23;;;;;;;7.15;100.00;98844.53;5160419;27;20133;-62
2023/10/25 05:12:52;;;;;;;15.65;8.10;;;;;;;7.09;100.00;98854.91;5160341;27;20134;-60
2023/10/25 05:15:19;;;;;;;17.63;9.35;;;;;;;7.29;100.00;98823.88;5160204;27;20093;-61
2023/10/25 05:17:47;;;;;;;15.75;8.27;;;;;;;7.15;100.00;98822.72;5160149;27;20047;-62
2023/10/25 05:20:15;;;;;;;14.52;7.75;;;;;;;7.05;100.00;98826.75;5160084;27;20042;-61
2023/10/25 05:22:43;;;;;;;13.65;7.85;;;;;;;7.20;100.00;98819.75;5159807;27;20051;-61
2023/10/25 05:25:10;;;;;;;14.93;7.82;;;;;;;7.03;100.00;98824.41;5160232;27;20372;-64
2023/10/25 05:27:37;;;;;;;10.73;6.82;;;;;;;6.92;100.00;98820.56;5159657;27;20416;-63
2023/10/25 05:30:07;;;;;;;17.00;8.98;;;;;;;7.12;100.00;98810.59;5160242;27;20050;-60
2023/10/25 05:32:35;;;;;;;12.88;7.82;;;;;;;7.01;100.00;98793.97;5159701;27;20042;-61
2023/10/25 05:35:02;;;;;;;10.93;7.53;;;;;;;7.06;100.00;98799.16;5159666;27;20409;-61
2023/10/25 05:37:29;;;;;;;15.65;8.07;;;;;;;7.23;100.00;98791.75;5159982;27;20058;-59
2023/10/25 05:39:57;;;;;;;12.38;7.38;;;;;;;6.96;100.00;98804.31;5159782;27;20133;-60
2023/10/25 05:42:24;;;;;;;13.10;6.80;;;;;;;6.95;100.00;98806.25;5160001;27;20047;-63
2023/10/25 05:44:53;;;;;;;17.23;8.63;;;;;;;7.24;100.00;98804.28;5159579;27;20058;-59
2023/10/25 05:47:20;;;;;;;19.77;7.75;;;;;;;7.04;100.00;98801.44;5159463;27;20122;-61
2023/10/25 05:49:46;;;;;;;16.50;7.82;;;;;;;7.16;100.00;98803.28;5159564;27;20050;-62
2023/10/25 05:52:13;;;;;;;12.88;6.93;;;;;;;6.91;100.00;98802.66;5159814;27;20054;-62
2023/10/25 05:54:39;;;;;;;13.40;7.40;;;;;;;6.88;100.00;98794.38;5159386;27;20111;-60
2023/10/25 05:57:07;;;;;;;12.57;6.63;;;;;;;6.96;100.00;98779.78;5159847;27;20079;-62
2023/10/25 05:59:34;;;;;;;11.77;6.70;;;;;;;7.22;100.00;98777.34;5159280;27;20042;-64
2023/10/25 06:02:08;;;;;;;9.68;6.28;;;;;;;7.42;100.00;98785.63;5159307;27;20051;-62
2023/10/25 06:04:37;;;;;;;10.07;6.20;;;;;;;7.44;100.00;98805.16;5159472;27;20316;-62
2023/10/25 06:07:03;;;;;;;17.98;5.47;;;;;;;7.14;100.00;98819.22;5159345;27;20074;-61
2023/10/25 06:09:30;;;;;;;12.20;6.22;;;;;;;7.02;100.00;98822.00;5159430;27;20457;-59
2023/10/25 06:11:56;;;;;;;16.20;6.28;;;;;;;7.05;100.00;98799.50;5159174;27;20432;-61
2023/10/25 06:14:23;;;;;;;12.55;5.20;;;;;;;6.99;100.00;98800.91;5159327;27;20043;-62
2023/10/25 06:16:49;;;;;;;15.45;6.35;;;;;;;6.79;100.00;98784.41;5159058;27;20425;-62
2023/10/25 06:19:15;;;;;;;12.48;6.10;;;;;;;6.81;100.00;98768.53;5158100;27;20067;-62
2023/10/25 06:21:41;;;;;;;12.27;5.13;;;;;;;6.75;100.00;98760.97;5158836;27;20050;-60
2023/10/25 06:24:08;;;;;;;12.80;5.55;;;;;;;6.82;100.00;98756.47;5159377;27;20133;-61
2023/10/25 06:26:34;;;;;;;15.82;6.45;;;;;;;6.78;100.00;98757.53;5158690;27;20057;-62
2023/10/25 06:29:00;;;;;;;16.45;6.13;;;;;;;6.87;100.00;98739.09;5159104;27;20051;-60
2023/10/25 06:31:26;;;;;;;12.30;5.85;;;;;;;6.84;100.00;98746.03;5158994;27;20126;-60
2023/10/25 06:33:52;;;;;;;12.38;6.40;;;;;;;7.06;100.00;98758.28;5158816;27;20433;-61
2023/10/25 06:36:18;;;;;;;10.48;5.75;;;;;;;6.76;100.00;98757.88;5158811;27;20104;-60
2023/10/25 06:38:45;;;;;;;10.13;5.70;;;;;;;6.79;100.00;98759.91;5158518;27;20376;-61
2023/10/25 06:41:15;;;;;;;26.17;5.65;;;;;;;6.54;100.00;98764.69;5158573;27;20160;-62
2023/10/25 06:43:41;;;;;;;9.75;5.97;;;;;;;6.71;100.00;98754.63;5158335;27;20050;-61
2023/10/25 06:46:08;;;;;;;11.43;5.82;;;;;;;6.66;100.00;98754.88;5158840;27;20319;-63
2023/10/25 06:48:36;;;;;;;12.73;5.88;;;;;;;6.74;100.00;98754.72;5158481;27;20102;-61
2023/10/25 06:51:05;;;;;;;28.13;6.03;;;;;;;6.50;100.00;98777.44;5158899;27;20138;-61
2023/10/25 06:53:31;;;;;;;13.48;5.55;;;;;;;6.58;100.00;98754.69;5158320;27;20055;-62
2023/10/25 06:55:58;;;;;;;9.43;5.13;;;;;;;6.57;100.00;98753.09;5158350;27;20130;-61
2023/10/25 06:58:25;;;;;;;14.52;5.10;;;;;;;6.52;100.00;98758.78;5158787;27;20495;-61
2023/10/25 07:00:55;;;;;;;22.17;5.65;;;;;;;6.52;100.00;98747.91;5158122;27;20141;-60
2023/10/25 07:03:27;;;;;;;17.15;6.22;;;;;;;6.45;100.00;98739.53;5158490;27;20046;-61
2023/10/25 07:05:56;;;;;;;33.80;5.45;;;;;;;6.39;100.00;98724.59;5158408;27;20380;-60
2023/10/25 07:08:22;;;;;;;18.42;6.93;;;;;;;6.62;100.00;98715.84;5158643;27;20051;-61
2023/10/25 07:10:48;;;;;;;12.57;7.07;;;;;;;6.70;100.00;98725.81;5158276;27;20142;-62
2023/10/25 07:13:14;;;;;;;9.77;5.93;;;;;;;6.55;100.00;98724.63;5158652;27;20042;-62
2023/10/25 07:15:40;;;;;;;10.30;5.38;;;;;;;6.54;100.00;98715.69;5158173;27;20062;-60
2023/10/25 07:18:06;;;;;;;45.65;7.22;;;;;;;6.38;100.00;98719.50;5158630;27;20410;-60
2023/10/25 07:20:32;;;;;;;20.40;7.00;;;;;;;6.39;100.00;98716.41;5157916;27;20137;-62
2023/10/25 07:23:00;;;;;;;12.23;5.57;;;;;;;6.48;100.00;98719.00;5158069;27;20400;-63
2023/10/25 07:25:26;;;;;;;23.25;6.43;;;;;;;6.26;100.00;98710.22;5158016;27;20469;-63
2023/10/25 07:27:52;;;;;;;18.52;6.40;;;;;;;6.29;100.00;98706.03;5158078;27;20050;-62
2023/10/25 07:30:18;;;;;;;10.15;6.03;;;;;;;6.44;100.00;98716.19;5157664;27;20330;-62
2023/10/25 07:32:44;;;;;;;13.90;6.75;;;;;;;6.35;100.00;98710.09;5157924;27;20058;-62
2023/10/25 07:35:10;;;;;;;16.17;6.90;;;;;;;6.20;100.00;98730.69;5158127;27;20081;-61
2023/10/25 07:37:36;;;;;;;12.10;6.20;;;;;;;6.29;100.00;98728.59;5157858;27;20078;-61
2023/10/25 07:40:05;;;;;;;13.25;6.60;;;;;;;6.48;100.00;98708.91;5158130;27;20057;-61
2023/10/25 07:42:32;;;;;;;12.13;6.60;;;;;;;6.52;100.00;98709.00;5136950;28;20065;-63
2023/10/25 07:44:58;;;;;;;15.05;6.40;;;;;;;6.36;100.00;98720.66;5137473;28;20341;-64
2023/10/25 07:47:24;;;;;;;9.73;5.55;;;;;;;6.34;100.00;98733.03;5137057;28;20163;-62
2023/10/25 07:49:50;;;;;;;14.52;7.40;;;;;;;6.50;100.00;98716.72;5137381;28;20047;-64
2023/10/25 07:52:17;;;;;;;11.07;6.03;;;;;;;6.51;100.00;98729.97;5136798;28;20061;-63
2023/10/25 07:54:43;;;;;;;12.18;6.40;;;;;;;6.83;100.00;98725.38;5137113;28;20142;-64
2023/10/25 07:57:09;;;;;;;10.38;5.70;;;;;;;6.82;100.00;98750.25;5136952;28;20059;-62
2023/10/25 07:59:36;;;;;;;9.52;5.85;;;;;;;6.69;100.00;98765.06;5137097;28;20051;-63
2023/10/25 08:02:02;;;;;;;11.15;5.70;;;;;;;6.78;100.00;98782.84;5137047;28;20082;-63
2023/10/25 08:04:28;;;;;;;8.40;4.57;;;;;;;6.68;100.00;98799.69;5136840;28;20051;-62
2023/10/25 08:06:54;;;;;;;10.63;5.80;;;;;;;6.55;100.00;98785.34;5136809;28;20131;-63
2023/10/25 08:09:20;;;;;;;11.30;6.40;;;;;;;6.80;100.00;98801.59;5136577;28;20062;-63
2023/10/25 08:11:46;;;;;;;7.80;5.30;;;;;;;6.69;100.00;98808.66;5136610;28;20059;-61
2023/10/25 08:14:12;;;;;;;9.45;6.68;;;;;;;6.61;100.00;98821.28;5136529;28;20055;-62
2023/10/25 08:16:39;;;;;;;8.85;5.72;;;;;;;6.48;100.00;98812.38;5137050;28;20376;-63
2023/10/25 08:19:05;;;;;;;6.97;4.70;;;;;;;6.31;100.00;98808.00;5136441;28;20149;-62
2023/10/25 08:21:31;;;;;;;8.40;5.25;;;;;;;6.62;100.00;98794.84;5136123;28;20103;-63
2023/10/25 08:23:57;;;;;;;12.20;5.28;;;;;;;6.85;100.00;98809.50;5136413;28;20054;-64
2023/10/25 08:26:25;;;;;;;6.90;4.40;;;;;;;6.54;100.00;98810.22;5136215;28;20047;-63
2023/10/25 08:28:51;;;;;;;6.35;4.78;;;;;;;6.73;100.00;98806.81;5136488;28;20090;-63
2023/10/25 08:31:19;;;;;;;6.88;4.90;;;;;;;7.00;100.00;98816.91;5136151;28;20051;-64
2023/10/25 08:33:45;;;;;;;8.73;5.05;;;;;;;7.31;100.00;98843.41;5136606;28;20043;-63
2023/10/25 08:36:11;;;;;;;6.88;4.45;;;;;;;6.71;100.00;98847.25;5136087;28;20444;-61
2023/10/25 08:38:37;;;;;;;5.20;4.10;;;;;;;6.53;100.00;98854.91;5136640;28;20066;-62
2023/10/25 08:41:04;;;;;;;5.50;3.97;;;;;;;6.45;100.00;98864.81;5136108;27;20149;-60
2023/10/25 08:43:30;;;;;;;7.15;4.68;;;;;;;6.67;100.00;98836.25;5139251;28;20427;-65
2023/10/25 08:45:56;;;;;;;5.38;3.83;;;;;;;6.71;100.00;98834.41;5139664;28;20061;-62
2023/10/25 08:48:25;;;;;;;6.78;4.53;;;;;;;6.97;100.00;98847.59;5140090;28;20051;-63
2023/10/25 08:50:51;;;;;;;8.02;3.80;;;;;;;6.70;100.00;98841.00;5139813;28;20158;-62
2023/10/25 08:53:21;;;;;;;6.60;4.10;;;;;;;6.90;100.00;98846.59;5139739;28;20054;-62
2023/10/25 08:55:50;;;;;;;6.40;4.57;;;;;;;6.96;100.00;98837.03;5139835;28;20095;-61
2023/10/25 08:58:17;;;;;;;6.80;5.10;;;;;;;6.77;100.00;98840.41;5139371;28;20058;-61
2023/10/25 09:00:43;;;;;;;7.25;4.97;;;;;;;6.79;100.00;98838.13;5139403;28;20057;-65
2023/10/25 09:03:08;;;;;;;7.80;5.13;;;;;;;6.64;100.00;98833.44;5139209;28;20051;-61
2023/10/25 09:05:41;;;;;;;7.72;4.88;;;;;;;6.97;100.00;98820.34;5139592;28;20099;-63
2023/10/25 09:08:15;;;;;;;10.40;5.40;;;;;;;6.96;100.00;98832.34;5139385;28;20061;-63
2023/10/25 09:10:41;;;;;;;7.80;5.60;;;;;;;6.99;100.00;98812.59;5139911;28;20302;-64
2023/10/25 09:13:12;;;;;;;8.60;5.00;;;;;;;6.84;100.00;98811.44;5139271;28;20731;-63
2023/10/25 09:15:39;;;;;;;10.23;5.78;;;;;;;6.91;100.00;98815.50;5139207;28;20404;-61
2023/10/25 09:18:05;;;;;;;8.82;5.68;;;;;;;7.00;100.00;98810.69;5139297;28;20349;-65
2023/10/25 09:20:32;;;;;;;12.55;5.65;;;;;;;6.79;100.00;98808.16;5139020;28;20138;-62
2023/10/25 09:23:10;;;;;;;8.57;5.00;;;;;;;6.89;100.00;98795.97;5139292;28;20373;-61
2023/10/25 09:25:37;;;;;;;7.22;5.10;;;;;;;7.23;100.00;98787.13;5139243;28;20047;-62
2023/10/25 09:28:03;;;;;;;8.40;5.82;;;;;;;7.06;100.00;98792.91;5139498;28;20047;-62
2023/10/25 09:30:30;;;;;;;7.80;4.32;;;;;;;6.64;100.00;98798.03;5139257;28;20071;-61
2023/10/25 09:32:57;;;;;;;10.43;5.38;;;;;;;7.06;100.00;98792.91;5139543;28;20047;-61
2023/10/25 09:35:23;;;;;;;9.20;5.65;;;;;;;6.73;100.00;98785.03;5139009;28;20051;-63
2023/10/25 09:37:49;;;;;;;10.50;5.10;;;;;;;6.83;100.00;98787.25;5139357;28;20053;-62
2023/10/25 09:40:16;;;;;;;8.13;5.53;;;;;;;6.76;100.00;98770.72;5139003;28;20047;-64
2023/10/25 09:42:45;;;;;;;9.40;5.82;;;;;;;6.87;100.00;98781.91;5138810;28;20487;-64
2023/10/25 09:45:12;;;;;;;7.63;5.03;;;;;;;6.89;100.00;98765.97;5138945;28;20404;-62
2023/10/25 09:47:41;;;;;;;6.88;5.22;;;;;;;7.14;100.00;98772.09;5139098;28;20336;-65
2023/10/25 09:50:15;;;;;;;8.52;5.57;;;;;;;7.19;100.00;98779.97;5138946;28;20138;-62
2023/10/25 09:52:43;;;;;;;7.78;5.28;;;;;;;7.06;100.00;98766.47;5138551;27;20180;-63
2023/10/25 09:55:18;;;;;;;9.02;5.65;;;;;;;7.20;100.00;98773.41;5138894;28;20468;-63
2023/10/25 09:57:46;;;;;;;7.43;4.88;;;;;;;6.88;100.00;98773.38;5138718;28;20078;-61
2023/10/25 10:00:13;;;;;;;9.90;5.68;;;;;;;6.66;100.00;98757.59;5139022;28;20356;-64
2023/10/25 10:02:46;;;;;;;8.75;5.72;;;;;;;6.77;100.00;98754.03;5138425;28;20055;-62
2023/10/25 10:05:21;;;;;;;9.48;5.80;;;;;;;6.65;100.00;98742.41;5138668;28;20137;-65
2023/10/25 10:07:57;;;;;;;6.80;5.40;;;;;;;6.69;100.00;98726.94;5138651;28;20047;-62
2023/10/25 10:10:29;;;;;;;9.18;5.45;;;;;;;6.84;100.00;98734.34;5138497;28;20072;-63
2023/10/25 10:12:55;;;;;;;10.55;5.97;;;;;;;6.90;100.00;98732.94;5138647;28;20047;-63
2023/10/25 10:15:56;;;;;;;8.90;5.95;;;;;;;6.67;100.00;98724.56;5138518;28;20217;-61
2023/10/25 10:18:22;;;;;;;8.68;5.07;;;;;;;6.65;100.00;98723.34;5134883;28;20070;-65
2023/10/25 10:20:58;;;;;;;12.50;6.60;;;;;;;6.82;100.00;98710.16;5138490;28;20435;-64
2023/10/25 10:23:34;;;;;;;9.45;6.45;;;;;;;6.83;100.00;98706.31;5143340;27;20043;-63
2023/10/25 10:26:01;;;;;;;14.70;6.22;;;;;;;6.46;100.00;98697.53;5148177;27;20042;-62
2023/10/25 10:28:38;;;;;;;8.93;5.60;;;;;;;6.76;100.00;98676.13;5153877;27;20302;-63
2023/10/25 10:31:04;;;;;;;11.55;6.80;;;;;;;6.94;100.00;98682.06;5138185;27;20409;-62
2023/10/25 10:33:33;;;;;;;12.25;6.30;;;;;;;6.82;100.00;98688.38;5152509;27;20057;-62
2023/10/25 10:36:00;;;;;;;11.57;6.53;;;;;;;7.12;100.00;98698.03;5159081;27;20146;-62
2023/10/25 10:38:26;;;;;;;17.35;6.70;;;;;;;6.86;100.00;98693.13;5159078;27;20083;-63
2023/10/25 10:40:52;;;;;;;9.38;6.18;;;;;;;6.88;100.00;98686.19;5158608;27;20059;-62
2023/10/25 10:43:20;;;;;;;8.55;5.38;;;;;;;7.00;100.00;98672.47;5158769;27;20047;-62
2023/10/25 10:45:52;;;;;;;10.40;5.07;;;;;;;6.86;100.00;98665.88;5156050;27;20047;-61
2023/10/25 10:48:21;;;;;;;8.63;6.10;;;;;;;6.89;100.00;98673.34;5158320;27;20384;-64
2023/10/25 10:50:49;;;;;;;8.77;5.50;;;;;;;7.11;100.00;98666.47;5158909;27;20055;-62
2023/10/25 10:53:15;;;;;;;9.13;6.03;;;;;;;7.03;100.00;98660.88;5158412;27;20410;-62
2023/10/25 10:55:43;;;;;;;8.32;5.65;;;;;;;7.14;100.00;98663.84;5154327;27;20058;-59
2023/10/25 10:58:10;;;;;;;10.05;5.53;;;;;;;7.23;100.00;98653.53;5143606;27;20047;-58
2023/10/25 11:00:36;;;;;;;9.65;5.30;;;;;;;7.59;100.00;98650.78;5137844;28;20306;-57
2023/10/25 11:03:03;;;;;;;6.35;4.45;;;;;;;6.92;100.00;98662.53;5158180;27;20054;-59
2023/10/25 11:05:31;;;;;;;10.10;5.20;;;;;;;6.88;100.00;98656.19;5158050;27;20471;-61
2023/10/25 11:07:57;;;;;;;10.48;6.32;;;;;;;7.31;100.00;98655.25;5158250;27;20060;-62
2023/10/25 11:10:23;;;;;;;7.57;5.95;;;;;;;7.25;100.00;98651.22;5158365;27;20142;-64
2023/10/25 11:12:50;;;;;;;12.95;5.95;;;;;;;7.54;100.00;98655.38;5158173;27;20142;-60
2023/10/25 11:15:16;;;;;;;11.48;5.60;;;;;;;7.37;100.00;98653.06;5158121;27;20138;-60
2023/10/25 11:17:43;;;;;;;6.38;4.30;;;;;;;7.02;100.00;98645.63;5148911;27;20435;-61
2023/10/25 11:20:10;;;;;;;8.15;5.20;;;;;;;7.33;100.00;98644.03;5139774;27;20071;-62
2023/10/25 11:22:36;;;;;;;6.60;5.38;;;;;;;7.41;100.00;98642.22;5158342;27;20479;-63
2023/10/25 11:25:09;;;;;;;7.82;5.45;;;;;;;7.35;100.00;98644.44;5158338;27;20051;-62